Hanska, MN (56041)

1:45 PM CST on March 03, 2015 (GMT -0600)
Thompson Farms | Change Station
CLOSE
Current Station
Personal Weather Station
Location: Hanska, MN
Elevation: 988 ft
Nearby Weather Stations
Active Advisory: Winter Weather Advisory

Elev 988 ft 44.17 °N, 94.38 °W | Updated 3 seconds ago

Overcast
Overcast
22.3 °F
Feels Like 5 °F
N
28.0
Wind Variable Wind from NW
Gusts 34.0 mph

Today
High -- | Low -- °F
--% Chance of Precip.
Yesterday
High -- | Low -- °F
Precip. -- in
6:51 AM 6:08 PM
Waxing Gibbous, 97% visible
Pressure 29.80 in
Visibility 3.0 miles
Clouds Mostly Cloudy 1600 ft
Mostly Cloudy 2200 ft
Overcast 4900 ft
Windchill 5 °F
Dew Point 20 °F
Humidity 89%
Rainfall 0.00 in
Snow Depth Not available.
UV 3.1 out of 12
Pollen .50 out of 12
Air Quality Not available.
Flu Activity Not available.
METAR KJYG 031935Z AUTO 30025G31KT 3SM HZ BKN016 BKN022 OVC049 M04/M07 A2980 RMK AO2

More Conditions Fewer Conditions

Pressure 29.80 in
Visibility 3.0 miles
Clouds Mostly Cloudy 1600 ft
Mostly Cloudy 2200 ft
Overcast 4900 ft
Windchill 5 °F
Dew Point 20 °F
Humidity 89%
Rainfall 0.00 in
Snow Depth Not available.
UV 3.1 out of 12
Pollen .50 out of 12
Air Quality Not available.
Flu Activity Not available.
METAR KJYG 031935Z AUTO 30025G31KT 3SM HZ BKN016 BKN022 OVC049 M04/M07 A2980 RMK AO2

More Conditions Fewer Conditions

10-Day Weather Forecast

Almanac

Astronomy

Mar. 03, 2015 Rise Set
Actual Time
Civil Twilight
Nautical Twilight
Astronomical Twilight
Moon
Length of Visible Light
Length of Day
Tomorrow will be .
, % of the Moon is Illuminated

Today's Extremes

State Highs State Lows

Community

WunderPhotos

Upload Photos

1,802,217 photos uploaded!

WunderBlogs® & News

Nearby

Air Quality

  Air Quality AQ Index Pollutant
Not available.

Snow Depth

Station Depth Elevation

Earthquake Activity

City Distance Mag. Time & Date
Minimum magnitude displayed is 2.5.

Coastal Water Temperatures

Place Temperature

Nearby Weather Stations

Winter Weather Advisory
Statement as of 12:52 PM CST on March 03, 2015

... Winter Weather Advisory in effect until 9 PM CST this
evening...
... Blizzard Warning is cancelled...

The National Weather Service in Twin Cities/Chanhassen has issued
a Winter Weather Advisory for blowing snow... which is in effect
until 9 PM CST this evening. The Blizzard Warning has been
cancelled.

* Timing... now through 9 PM.

* Impacts... travel may be difficult with patchy blowing snow and
occasional slick spots.

Precautionary/preparedness actions...

A Winter Weather Advisory for blowing snow means that
visibilities will be limited due to strong winds blowing snow
around. Use caution when traveling... especially in open areas.